Time;durP1;ratioP1;P1;durP2;ratioP2;P2;SDS_P1;SDS_P2;PMS_P1;PMS_P2;Temp;Humidity;BMP_temperature;BMP_pressure;BME280_temperature;BME280_humidity;BME280_pressure;Samples;Min_cycle;Max_cycle;Signal;HPM_P1;HPM_P2
2022/11/07 00:01:20;;;;;;;53.92;29.00;;;;;;;6.28;100.00;100604.16;1733700;82;21203;-66
2022/11/07 00:03:48;;;;;;;55.55;29.90;;;;;;;6.29;100.00;100609.78;1776941;79;20956;-66
2022/11/07 00:06:16;;;;;;;53.17;31.12;;;;;;;6.25;100.00;100600.02;1704401;83;21024;-67
2022/11/07 00:08:45;;;;;;;44.48;28.07;;;;;;;6.30;100.00;100601.58;1692835;83;20901;-71
2022/11/07 00:11:11;;;;;;;54.00;30.82;;;;;;;6.36;100.00;100604.80;1693545;83;20940;-70
2022/11/07 00:13:40;;;;;;;53.68;31.27;;;;;;;6.40;100.00;100606.04;1692744;84;20975;-68
2022/11/07 00:16:08;;;;;;;57.53;31.30;;;;;;;6.39;100.00;100608.91;1707910;83;21023;-69
2022/11/07 00:18:35;;;;;;;55.92;30.95;;;;;;;6.36;100.00;100607.47;1721721;83;21008;-71
2022/11/07 00:21:08;;;;;;;55.48;31.12;;;;;;;6.34;100.00;100604.66;1714718;83;21515;-71
2022/11/07 00:23:39;;;;;;;59.25;32.50;;;;;;;6.33;100.00;100603.05;1705118;83;21299;-70
2022/11/07 00:26:09;;;;;;;51.48;29.25;;;;;;;6.36;100.00;100599.96;1720409;83;22187;-69
2022/11/07 00:28:40;;;;;;;55.78;32.10;;;;;;;6.32;100.00;100600.05;1713866;83;21072;-71
2022/11/07 00:31:08;;;;;;;52.05;31.25;;;;;;;6.30;100.00;100601.58;1691346;84;21030;-70
2022/11/07 00:33:35;;;;;;;57.43;34.03;;;;;;;6.28;100.00;100600.14;1703335;83;21598;-70
2022/11/07 00:36:04;;;;;;;58.23;33.25;;;;;;;6.25;100.00;100598.68;1721738;83;20921;-68
2022/11/07 00:38:32;;;;;;;52.27;30.25;;;;;;;6.27;100.00;100601.16;1720915;83;20936;-69
2022/11/07 00:41:03;;;;;;;48.63;28.60;;;;;;;6.27;100.00;100589.97;1721661;83;21627;-71
2022/11/07 00:43:31;;;;;;;57.60;31.87;;;;;;;6.26;100.00;100595.50;1714740;83;20932;-73
2022/11/07 00:46:01;;;;;;;55.48;30.80;;;;;;;6.23;100.00;100595.41;1704181;83;21087;-68
2022/11/07 00:48:31;;;;;;;58.10;32.03;;;;;;;6.23;100.00;100589.23;1685098;85;22198;-69
2022/11/07 00:51:08;;;;;;;50.43;30.92;;;;;;;6.26;100.00;100587.48;1661445;85;20940;-76
2022/11/07 00:53:37;;;;;;;50.25;30.43;;;;;;;6.29;100.00;100587.08;1678277;84;21711;-76
2022/11/07 00:56:06;;;;;;;56.15;29.32;;;;;;;6.33;100.00;100584.34;1683737;84;21023;-73
2022/11/07 00:58:34;;;;;;;57.20;32.98;;;;;;;6.33;100.00;100575.79;1717508;82;20984;-70
2022/11/07 01:01:18;;;;;;;57.08;32.95;;;;;;;6.32;100.00;100574.16;1694463;82;21075;-69
2022/11/07 01:06:33;;;;;;;48.80;30.25;;;;;;;6.33;100.00;100575.79;1722559;83;21026;-69
2022/11/07 01:08:59;;;;;;;48.02;27.58;;;;;;;6.36;100.00;100571.40;1722569;83;20938;-67
2022/11/07 01:11:27;;;;;;;49.95;30.00;;;;;;;6.40;100.00;100575.82;1722452;82;21048;-76
2022/11/07 01:13:56;;;;;;;54.60;32.40;;;;;;;6.39;100.00;100572.32;1741137;82;21087;-74
2022/11/07 01:16:22;;;;;;;47.75;29.27;;;;;;;6.34;100.00;100571.27;1741990;82;21134;-72
2022/11/07 01:18:49;;;;;;;44.77;29.32;;;;;;;6.30;100.00;100571.37;1741640;82;21079;-71
2022/11/07 01:21:16;;;;;;;51.83;30.30;;;;;;;6.28;100.00;100568.09;1736609;82;20980;-70
2022/11/07 01:23:43;;;;;;;46.60;27.50;;;;;;;6.26;100.00;100564.27;1730763;82;20984;-68
2022/11/07 01:26:11;;;;;;;47.17;29.65;;;;;;;6.28;100.00;100562.75;1714446;82;21237;-73
2022/11/07 01:28:38;;;;;;;45.38;28.05;;;;;;;6.28;100.00;100562.23;1719281;82;21074;-71
2022/11/07 01:31:09;;;;;;;45.67;27.98;;;;;;;6.32;100.00;100559.47;1696559;82;21111;-73
2022/11/07 01:33:36;;;;;;;50.92;28.90;;;;;;;6.30;100.00;100554.83;1740180;82;21093;-72
2022/11/07 01:36:09;;;;;;;51.20;31.07;;;;;;;6.33;100.00;100552.28;1738550;82;21023;-67
2022/11/07 01:38:40;;;;;;;45.50;30.50;;;;;;;6.39;100.00;100551.45;1723545;82;20947;-67
2022/11/07 01:41:20;;;;;;;45.88;26.15;;;;;;;6.43;100.00;100549.52;1711236;82;21147;-67
2022/11/07 01:44:11;;;;;;;42.50;28.62;;;;;;;6.46;100.00;100546.97;1741794;82;22246;-68
2022/11/07 01:46:41;;;;;;;43.65;27.20;;;;;;;6.47;100.00;100533.92;1717388;82;21051;-66
2022/11/07 01:49:18;;;;;;;44.27;28.75;;;;;;;6.48;100.00;100543.56;1702361;84;20956;-65
2022/11/07 01:51:53;;;;;;;43.23;30.10;;;;;;;6.50;100.00;100540.19;1685347;82;21098;-73
2022/11/07 01:54:25;;;;;;;42.83;27.20;;;;;;;6.52;100.00;100543.50;1707627;82;21294;-77
2022/11/07 01:56:53;;;;;;;55.58;32.33;;;;;;;6.51;100.00;100543.17;1730189;82;20991;-72
2022/11/07 01:59:22;;;;;;;47.00;28.60;;;;;;;6.44;100.00;100535.64;1731281;82;20973;-79
2022/11/07 02:01:49;;;;;;;46.05;29.20;;;;;;;6.44;100.00;100531.64;1693201;82;21047;-76
2022/11/07 02:04:17;;;;;;;49.58;29.63;;;;;;;6.43;100.00;100529.48;1709917;81;21063;-68
2022/11/07 02:06:49;;;;;;;42.45;26.02;;;;;;;6.41;100.00;100529.38;1729343;82;21116;-71
2022/11/07 02:09:18;;;;;;;42.85;29.50;;;;;;;6.43;100.00;100516.62;1708533;81;21023;-72
2022/11/07 02:11:44;;;;;;;51.33;28.67;;;;;;;6.44;100.00;100520.44;1711888;82;20999;-73
2022/11/07 02:14:15;;;;;;;41.60;28.62;;;;;;;6.47;100.00;100520.56;1731632;82;21123;-76
2022/11/07 02:16:42;;;;;;;51.92;31.48;;;;;;;6.49;100.00;100523.84;1731609;82;21075;-74
2022/11/07 02:19:18;;;;;;;43.23;29.05;;;;;;;6.49;100.00;100521.99;1731587;81;21276;-74
2022/11/07 02:21:50;;;;;;;40.83;26.62;;;;;;;6.51;100.00;100515.95;1728569;82;21540;-71
2022/11/07 02:24:30;;;;;;;40.92;28.57;;;;;;;6.52;100.00;100509.55;1731642;81;21039;-71
2022/11/07 02:26:57;;;;;;;47.58;30.10;;;;;;;6.56;100.00;100509.48;1760228;81;21018;-69
2022/11/07 02:29:23;;;;;;;47.27;28.83;;;;;;;6.60;100.00;100506.39;1772499;81;21037;-69
2022/11/07 02:32:08;;;;;;;40.48;28.17;;;;;;;6.55;100.00;100513.17;1736779;81;21469;-80
2022/11/07 02:34:36;;;;;;;53.95;29.82;;;;;;;6.54;100.00;100515.53;1741724;82;20945;-79
2022/11/07 02:37:06;;;;;;;45.52;28.07;;;;;;;6.57;100.00;100515.62;1742375;82;20972;-79
2022/11/07 02:39:33;;;;;;;45.23;28.77;;;;;;;6.56;100.00;100522.02;1726429;82;67824;-77
2022/11/07 02:42:00;;;;;;;41.33;27.10;;;;;;;6.54;100.00;100516.86;1700293;83;21058;-85
2022/11/07 02:44:27;;;;;;;39.33;25.85;;;;;;;6.58;100.00;100519.44;1676363;84;21128;-85
2022/11/07 02:46:54;;;;;;;44.73;29.77;;;;;;;6.63;100.00;100517.99;1675477;84;20981;-81
2022/11/07 02:49:22;;;;;;;47.40;30.08;;;;;;;6.62;100.00;100518.50;1699593;84;21013;-71
2022/11/07 02:51:49;;;;;;;41.63;26.30;;;;;;;6.67;100.00;100523.23;1685921;84;21511;-69
2022/11/07 02:54:15;;;;;;;40.12;27.15;;;;;;;6.69;100.00;100523.36;1669756;85;21060;-73
2022/11/07 02:56:41;;;;;;;47.35;29.77;;;;;;;6.68;100.00;100528.39;1669700;86;21251;-68
2022/11/07 02:59:08;;;;;;;44.30;28.35;;;;;;;6.69;100.00;100526.55;1669610;86;21128;-68
2022/11/07 03:01:35;;;;;;;45.55;30.95;;;;;;;6.74;100.00;100530.77;1657255;86;21587;-70
2022/11/07 03:04:01;;;;;;;40.03;27.60;;;;;;;6.79;100.00;100532.31;1706551;83;20994;-69
2022/11/07 03:06:28;;;;;;;41.13;26.12;;;;;;;6.84;100.00;100535.20;1706452;83;21523;-70
2022/11/07 03:08:57;;;;;;;44.90;30.45;;;;;;;6.83;100.00;100534.38;1704606;83;21148;-69
2022/11/07 03:11:24;;;;;;;35.23;25.23;;;;;;;6.77;100.00;100536.52;1704804;84;21063;-70
2022/11/07 03:13:53;;;;;;;45.20;29.10;;;;;;;6.81;100.00;100528.39;1678501;84;21019;-69
2022/11/07 03:16:20;;;;;;;47.45;30.62;;;;;;;6.84;100.00;100529.86;1674591;85;21027;-70
2022/11/07 03:18:48;;;;;;;42.80;30.32;;;;;;;6.82;100.00;100530.05;1706617;84;21046;-71
2022/11/07 03:21:14;;;;;;;37.53;25.65;;;;;;;6.79;100.00;100531.80;1705640;83;21233;-72
2022/11/07 03:23:41;;;;;;;41.13;27.02;;;;;;;6.81;100.00;100523.59;1706108;83;20970;-74
2022/11/07 03:26:07;;;;;;;47.73;27.58;;;;;;;6.83;100.00;100526.35;1706513;83;21025;-70
2022/11/07 03:28:34;;;;;;;43.70;28.67;;;;;;;6.82;100.00;100523.36;1706357;83;21054;-69
2022/11/07 03:31:01;;;;;;;44.70;30.62;;;;;;;6.82;100.00;100522.53;1706646;83;21122;-67
2022/11/07 03:33:29;;;;;;;44.42;27.58;;;;;;;6.86;100.00;100525.11;1706233;83;21251;-68
2022/11/07 03:35:58;;;;;;;38.88;25.95;;;;;;;6.85;100.00;100518.13;1677420;85;21546;-74
2022/11/07 03:38:24;;;;;;;39.67;26.42;;;;;;;6.85;100.00;100515.46;1677386;85;20956;-68
2022/11/07 03:40:51;;;;;;;37.33;25.57;;;;;;;6.80;100.00;100509.39;1647284;86;21009;-67
2022/11/07 03:43:18;;;;;;;37.83;26.97;;;;;;;6.79;100.00;100513.59;1674306;85;21123;-70
2022/11/07 03:45:45;;;;;;;41.68;28.52;;;;;;;6.80;100.00;100510.73;1673836;85;21187;-69
2022/11/07 03:48:11;;;;;;;34.92;25.43;;;;;;;6.76;100.00;100498.78;1698914;84;21047;-68
2022/11/07 03:50:38;;;;;;;39.03;26.60;;;;;;;6.78;100.00;100502.59;1691036;84;21108;-69
2022/11/07 03:53:05;;;;;;;46.20;27.42;;;;;;;6.80;100.00;100495.20;1656053;85;21083;-69
2022/11/07 03:55:32;;;;;;;51.90;29.37;;;;;;;6.77;100.00;100497.75;1677021;84;21118;-69
2022/11/07 03:57:59;;;;;;;37.80;25.65;;;;;;;6.70;100.00;100495.61;1674310;84;21069;-69
2022/11/07 04:00:26;;;;;;;44.33;28.20;;;;;;;6.65;100.00;100495.40;1663135;85;21722;-68
2022/11/07 04:02:53;;;;;;;40.83;26.70;;;;;;;6.62;100.00;100496.33;1671456;84;21080;-68
2022/11/07 04:05:20;;;;;;;43.13;25.37;;;;;;;6.61;100.00;100500.84;1691159;83;20983;-69
2022/11/07 04:07:47;;;;;;;40.95;27.00;;;;;;;6.64;100.00;100504.44;1678800;84;21046;-68
2022/11/07 04:10:14;;;;;;;37.30;26.00;;;;;;;6.65;100.00;100500.74;1689863;84;21077;-69
2022/11/07 04:18:11;;;;;;;40.17;26.40;;;;;;;6.76;100.00;100490.75;1689967;84;21083;-69
2022/11/07 04:20:39;;;;;;;33.92;23.47;;;;;;;6.74;100.00;100488.81;1690866;84;21014;-69
2022/11/07 04:23:05;;;;;;;42.83;29.15;;;;;;;6.73;100.00;100487.16;1691019;83;21800;-69
2022/11/07 04:28:17;;;;;;;39.00;26.27;;;;;;;6.71;100.00;100481.73;1689710;83;20951;-68
2022/11/07 04:30:44;;;;;;;37.10;25.72;;;;;;;6.71;100.00;100481.22;1668433;86;21061;-68
2022/11/07 04:33:11;;;;;;;43.45;28.05;;;;;;;6.71;100.00;100480.39;1660920;86;21060;-68
2022/11/07 04:35:38;;;;;;;37.78;25.70;;;;;;;6.72;100.00;100476.67;1646120;87;21160;-69
2022/11/07 04:38:05;;;;;;;43.23;25.37;;;;;;;6.69;100.00;100479.77;1625313;86;20972;-69
2022/11/07 04:40:32;;;;;;;42.65;27.15;;;;;;;6.62;100.00;100483.76;1656323;86;21023;-69
2022/11/07 04:42:59;;;;;;;41.13;26.95;;;;;;;6.61;100.00;100481.31;1664735;83;20983;-69
2022/11/07 04:45:25;;;;;;;36.70;26.35;;;;;;;6.61;100.00;100477.30;1654610;85;21012;-70
2022/11/07 04:47:52;;;;;;;47.30;28.07;;;;;;;6.63;100.00;100477.91;1687060;84;21201;-69
2022/11/07 04:50:20;;;;;;;36.73;23.60;;;;;;;6.63;100.00;100481.91;1676498;84;21095;-69
2022/11/07 04:52:46;;;;;;;34.70;26.73;;;;;;;6.65;100.00;100485.22;1659868;84;21092;-68
2022/11/07 04:55:22;;;;;;;40.38;24.45;;;;;;;6.67;100.00;100486.64;1683279;84;21570;-68
2022/11/07 06:48:47;;;;;;;37.10;24.45;;;;;;;6.42;100.00;100539.88;1792449;78;44082;-67
2022/11/07 06:51:15;;;;;;;31.62;23.55;;;;;;;6.39;100.00;100542.11;1772403;80;21003;-69
2022/11/07 06:53:43;;;;;;;35.15;24.00;;;;;;;6.41;100.00;100536.88;1785476;79;21177;-68
2022/11/07 06:56:14;;;;;;;32.95;25.50;;;;;;;6.43;100.00;100544.67;1772911;80;20973;-67
2022/11/07 06:58:41;;;;;;;34.40;24.30;;;;;;;6.44;100.00;100550.34;1772066;81;21030;-67
2022/11/07 07:01:12;;;;;;;39.35;25.25;;;;;;;6.47;100.00;100557.47;1776686;79;21020;-68
2022/11/07 07:03:40;;;;;;;40.85;21.87;;;;;;;6.51;100.00;100562.71;1789113;79;20991;-68
2022/11/07 07:06:11;;;;;;;30.32;23.30;;;;;;;6.57;100.00;100559.72;1779122;79;22039;-70
2022/11/07 07:08:38;;;;;;;27.15;21.50;;;;;;;6.60;100.00;100563.85;1786254;79;20919;-67
2022/11/07 07:11:09;;;;;;;32.70;23.10;;;;;;;6.66;100.00;100560.38;1784369;79;21019;-70
2022/11/07 07:13:36;;;;;;;37.17;23.60;;;;;;;6.70;100.00;100553.08;1772151;80;21013;-69
2022/11/07 07:16:04;;;;;;;37.58;25.68;;;;;;;6.70;100.00;100558.94;1772626;79;21014;-68
2022/11/07 07:18:31;;;;;;;28.73;22.52;;;;;;;6.69;100.00;100555.95;1795594;79;21106;-66
2022/11/07 07:21:07;;;;;;;31.12;24.23;;;;;;;6.76;100.00;100558.93;1806149;79;20927;-69
2022/11/07 07:23:34;;;;;;;32.13;23.18;;;;;;;6.79;100.00;100549.69;1772871;80;20998;-68
2022/11/07 07:26:03;;;;;;;37.58;24.07;;;;;;;6.85;100.00;100548.89;1773627;80;21954;-69
2022/11/07 07:28:29;;;;;;;37.20;24.25;;;;;;;6.86;100.00;100554.52;1793715;79;20967;-69
2022/11/07 07:31:22;;;;;;;37.67;25.08;;;;;;;6.83;100.00;100549.08;1798521;79;21023;-70
2022/11/07 07:33:49;;;;;;;36.63;24.90;;;;;;;6.79;100.00;100543.01;1774802;80;21522;-68
2022/11/07 07:36:16;;;;;;;32.20;24.07;;;;;;;6.81;100.00;100547.11;1789730;79;21231;-70
2022/11/07 07:38:43;;;;;;;34.10;23.25;;;;;;;6.81;100.00;100548.45;1798345;79;20996;-69
2022/11/07 07:41:10;;;;;;;33.95;23.70;;;;;;;6.82;99.89;100545.27;1831292;78;21078;-69
2022/11/07 07:43:36;;;;;;;35.65;24.23;;;;;;;6.76;99.78;100542.09;1773055;79;21139;-69
2022/11/07 07:46:06;;;;;;;35.58;25.20;;;;;;;6.77;99.98;100547.22;1793196;78;20974;-70
2022/11/07 07:48:32;;;;;;;26.85;22.13;;;;;;;6.76;99.95;100543.42;1796370;79;21066;-75
2022/11/07 07:50:59;;;;;;;31.82;24.32;;;;;;;6.82;100.00;100549.27;1786142;78;21531;-70
2022/11/07 07:53:25;;;;;;;24.70;21.07;;;;;;;6.87;100.00;100550.82;1798334;79;21008;-70
2022/11/07 07:55:57;;;;;;;33.98;23.95;;;;;;;6.88;99.78;100547.95;1797980;79;21211;-70
2022/11/07 07:58:28;;;;;;;32.05;24.37;;;;;;;6.87;99.57;100552.98;1794595;79;21527;-71
2022/11/07 08:00:58;;;;;;;34.98;20.70;;;;;;;6.90;99.71;100533.05;1798246;79;20990;-69
2022/11/07 08:03:26;;;;;;;34.13;23.92;;;;;;;6.94;99.61;100536.45;1797246;79;21026;-70
2022/11/07 08:05:55;;;;;;;34.05;24.82;;;;;;;6.94;99.23;100539.13;1794935;79;21113;-70
2022/11/07 08:08:21;;;;;;;26.90;21.50;;;;;;;6.90;99.01;100539.73;1771599;80;21941;-71
2022/11/07 08:10:53;;;;;;;33.35;21.52;;;;;;;6.90;99.15;100543.75;1797117;78;21015;-68
2022/11/07 08:13:17;;;;;;;28.60;22.05;;;;;;;6.91;99.19;100546.20;1795641;79;21028;-70
2022/11/07 08:15:44;;;;;;;29.90;22.90;;;;;;;6.96;99.14;100538.38;1796121;79;22173;-70
2022/11/07 08:20:37;;;;;;;35.88;22.50;;;;;;;6.98;98.56;100524.81;1798057;78;21006;-68
2022/11/07 08:23:06;;;;;;;32.05;25.50;;;;;;;6.95;98.39;100529.25;1766193;81;21123;-70
2022/11/07 08:25:33;;;;;;;32.15;23.50;;;;;;;6.93;98.58;100536.13;1766503;81;21046;-67
2022/11/07 08:28:02;;;;;;;35.03;24.40;;;;;;;6.97;98.68;100526.66;1786832;79;21062;-68
2022/11/07 08:30:30;;;;;;;28.45;22.40;;;;;;;7.00;98.60;100534.80;1776521;79;21066;-69
2022/11/07 08:33:02;;;;;;;29.92;22.30;;;;;;;7.00;98.37;100544.96;1779595;80;22229;-65
2022/11/07 08:35:29;;;;;;;28.05;21.33;;;;;;;7.03;98.29;100538.39;1779647;80;20995;-67
2022/11/07 08:37:59;;;;;;;28.12;22.67;;;;;;;7.04;98.29;100537.88;1790195;79;20955;-67
2022/11/07 08:40:26;;;;;;;33.63;24.52;;;;;;;7.05;98.14;100532.84;1809959;78;20998;-70
2022/11/07 08:42:59;;;;;;;33.75;24.18;;;;;;;7.03;97.95;100531.70;1804637;78;21040;-67
2022/11/07 08:45:26;;;;;;;33.73;22.58;;;;;;;7.06;98.00;100535.81;1795615;78;21251;-68
2022/11/07 08:47:57;;;;;;;32.85;22.42;;;;;;;7.04;97.76;100529.35;1785793;78;21492;-69
2022/11/07 08:50:25;;;;;;;33.05;24.90;;;;;;;7.03;97.76;100535.72;1728789;81;21560;-67
2022/11/07 08:52:52;;;;;;;29.20;21.95;;;;;;;7.02;97.72;100532.73;1735056;82;21221;-69
2022/11/07 08:55:18;;;;;;;30.08;22.55;;;;;;;7.02;97.64;100538.08;1744043;79;21463;-68
2022/11/07 08:57:46;;;;;;;30.80;23.52;;;;;;;7.06;97.76;100539.82;1776777;80;21210;-68
2022/11/07 09:00:14;;;;;;;30.90;24.20;;;;;;;7.09;97.71;100532.74;1727292;82;20942;-69
2022/11/07 09:02:42;;;;;;;31.07;22.15;;;;;;;7.11;97.62;100531.49;1734194;82;21560;-69
2022/11/07 09:05:10;;;;;;;32.88;21.97;;;;;;;7.13;97.27;100529.95;1781448;78;22172;-70
2022/11/07 09:07:38;;;;;;;27.60;18.95;;;;;;;7.14;97.12;100527.09;1715305;82;21104;-68
2022/11/07 09:10:07;;;;;;;27.32;21.35;;;;;;;7.12;96.76;100531.80;1754334;80;21015;-69
2022/11/07 09:12:33;;;;;;;29.37;23.62;;;;;;;7.07;96.89;100518.23;1712796;82;21056;-67
2022/11/07 09:15:00;;;;;;;29.07;21.87;;;;;;;7.07;96.97;100523.58;1767506;78;21095;-69
2022/11/07 09:17:31;;;;;;;30.23;21.33;;;;;;;7.07;97.27;100522.75;1779199;78;21051;-68
2022/11/07 09:19:58;;;;;;;32.35;22.50;;;;;;;7.13;97.37;100521.42;1754819;78;21048;-67
2022/11/07 09:22:25;;;;;;;33.55;22.82;;;;;;;7.18;97.09;100517.61;1743121;81;21211;-67
2022/11/07 09:24:52;;;;;;;33.90;24.98;;;;;;;7.17;96.66;100514.62;1771858;79;20947;-67
2022/11/07 09:27:18;;;;;;;29.32;20.82;;;;;;;7.13;96.54;100519.25;1761174;80;21048;-68
2022/11/07 09:29:45;;;;;;;24.35;19.77;;;;;;;7.13;96.81;100513.91;1729506;81;21066;-69
2022/11/07 09:32:12;;;;;;;30.88;22.02;;;;;;;7.15;96.86;100510.49;1723992;81;21060;-68
2022/11/07 09:34:40;;;;;;;26.07;20.75;;;;;;;7.16;96.74;100510.80;1766885;81;21125;-68
2022/11/07 09:37:07;;;;;;;28.47;21.42;;;;;;;7.21;96.71;100508.33;1763327;81;21067;-68
2022/11/07 09:39:34;;;;;;;28.42;24.00;;;;;;;7.24;96.40;100503.92;1754596;80;20921;-69
2022/11/07 09:42:21;;;;;;;30.50;23.77;;;;;;;7.25;96.34;100502.87;1784931;78;21023;-70
2022/11/07 09:44:54;;;;;;;31.55;21.35;;;;;;;7.25;96.07;100498.34;1754799;79;21059;-70
2022/11/07 09:47:44;;;;;;;26.95;21.23;;;;;;;7.25;95.77;100494.84;1765478;79;21155;-69
2022/11/07 09:50:31;;;;;;;30.10;21.07;;;;;;;7.24;95.78;100489.20;1781241;79;21696;-69
2022/11/07 09:53:09;;;;;;;29.07;22.55;;;;;;;7.30;95.77;100486.50;1790822;78;20931;-71
2022/11/07 09:55:50;;;;;;;27.50;21.68;;;;;;;7.29;95.20;100480.84;1790023;78;20975;-68
2022/11/07 09:58:33;;;;;;;29.00;19.70;;;;;;;7.29;95.13;100478.70;1815157;78;21038;-68
2022/11/07 10:01:04;;;;;;;28.47;20.62;;;;;;;7.28;94.84;100473.04;1806496;78;21332;-69
2022/11/07 10:03:34;;;;;;;28.05;18.73;;;;;;;7.32;94.84;100473.75;1805210;78;21016;-69
2022/11/07 10:06:29;;;;;;;24.45;20.00;;;;;;;7.32;94.22;100472.41;1793979;78;21693;-68
2022/11/07 10:09:33;;;;;;;29.77;19.65;;;;;;;7.35;94.27;100468.48;1797730;78;21014;-69
2022/11/07 10:12:16;;;;;;;27.70;20.45;;;;;;;7.42;94.10;100471.97;1827244;78;21516;-68
2022/11/07 14:19:19;;;;;;;25.82;18.27;;;;;;;7.08;93.44;100341.19;1608858;84;2077084;-73
2022/11/07 14:21:46;;;;;;;24.10;17.45;;;;;;;7.01;93.00;100338.00;1617562;87;21105;-75
2022/11/07 14:24:22;;;;;;;23.05;19.42;;;;;;;6.93;92.50;100338.24;1661830;86;21543;-67
2022/11/07 14:27:07;;;;;;;23.12;17.23;;;;;;;6.90;92.63;100331.17;1651514;84;21053;-74
2022/11/07 14:29:34;;;;;;;19.55;16.27;;;;;;;6.87;92.39;100335.06;1655245;85;21063;-68
2022/11/07 14:32:02;;;;;;;24.47;18.20;;;;;;;6.91;92.29;100338.13;1652464;86;21005;-67
2022/11/07 14:34:29;;;;;;;23.87;17.92;;;;;;;6.94;92.10;100335.88;1639424;86;20965;-69
2022/11/07 14:36:59;;;;;;;20.70;16.17;;;;;;;6.98;91.82;100337.09;1653608;86;21085;-66
2022/11/07 14:39:31;;;;;;;25.43;18.23;;;;;;;7.00;91.21;100334.22;1652664;86;21012;-69
2022/11/07 14:42:00;;;;;;;20.23;16.45;;;;;;;6.95;90.95;100346.07;1630645;86;20979;-69
2022/11/07 14:44:41;;;;;;;23.45;16.00;;;;;;;6.91;90.99;100344.82;1644581;84;21260;-70
2022/11/07 14:47:11;;;;;;;23.40;18.02;;;;;;;6.84;91.07;100344.86;1650467;86;21060;-70
2022/11/07 14:49:41;;;;;;;22.52;17.57;;;;;;;6.82;91.29;100343.41;1667513;85;21768;-69
2022/11/07 14:52:21;;;;;;;26.00;19.20;;;;;;;6.79;91.23;100345.17;1666205;86;21509;-66
2022/11/07 14:54:48;;;;;;;24.60;18.60;;;;;;;6.74;91.38;100339.11;1646051;86;21139;-69
2022/11/07 14:57:15;;;;;;;23.90;17.27;;;;;;;6.73;91.54;100346.00;1631753;87;21110;-70
2022/11/07 14:59:42;;;;;;;25.02;17.57;;;;;;;6.74;91.63;100346.31;1634009;87;21627;-72
2022/11/07 15:02:14;;;;;;;22.52;16.55;;;;;;;6.75;91.59;100350.13;1649452;86;21067;-69
2022/11/07 15:04:44;;;;;;;25.00;18.80;;;;;;;6.74;91.59;100351.66;1644140;86;21042;-65
2022/11/07 15:07:29;;;;;;;26.27;18.20;;;;;;;6.75;91.54;100361.33;1634551;87;21599;-69
2022/11/07 15:10:13;;;;;;;24.85;17.75;;;;;;;6.77;91.59;100352.56;1634277;87;21006;-71
2022/11/07 15:12:51;;;;;;;21.00;15.48;;;;;;;6.75;91.43;100355.47;1634439;87;21527;-72
2022/11/07 15:15:30;;;;;;;27.05;19.12;;;;;;;6.71;91.41;100342.22;1633985;87;21168;-72
2022/11/07 15:18:00;;;;;;;21.48;16.02;;;;;;;6.68;91.50;100354.64;1636767;86;21094;-73
2022/11/07 15:20:35;;;;;;;23.52;16.02;;;;;;;6.66;91.60;100360.73;1614569;87;21100;-70
2022/11/07 15:23:15;;;;;;;23.02;19.02;;;;;;;6.68;91.54;100358.66;1610664;87;21043;-64
2022/11/07 15:25:55;;;;;;;24.12;19.20;;;;;;;6.69;91.53;100360.81;1611309;87;21532;-69
2022/11/07 15:28:26;;;;;;;24.32;18.00;;;;;;;6.72;91.61;100361.21;1634861;86;21604;-67
2022/11/07 15:30:57;;;;;;;32.15;19.25;;;;;;;6.75;91.40;100368.01;1630742;87;21115;-68
2022/11/07 15:33:23;;;;;;;23.22;18.62;;;;;;;6.71;91.34;100370.28;1638349;87;21082;-67
2022/11/07 15:35:59;;;;;;;23.42;16.73;;;;;;;6.69;91.47;100375.00;1641801;86;20996;-69
2022/11/07 15:38:28;;;;;;;21.50;16.97;;;;;;;6.70;91.58;100373.16;1619947;87;21056;-69
2022/11/07 15:40:55;;;;;;;22.27;17.37;;;;;;;6.74;91.61;100375.72;1638145;87;21356;-68
2022/11/07 15:43:22;;;;;;;27.20;20.00;;;;;;;6.75;91.44;100374.69;1634287;87;21087;-69
2022/11/07 15:45:51;;;;;;;23.47;17.32;;;;;;;6.74;91.34;100375.20;1635389;87;21012;-69
2022/11/07 15:48:20;;;;;;;23.15;17.23;;;;;;;6.72;91.35;100375.09;1641226;87;21023;-67
2022/11/07 15:50:49;;;;;;;28.47;18.32;;;;;;;6.72;91.42;100375.91;1646101;87;21067;-69
2022/11/07 15:53:25;;;;;;;20.95;17.00;;;;;;;6.71;91.47;100382.31;1617364;87;21171;-67
2022/11/07 15:55:59;;;;;;;23.25;18.05;;;;;;;6.76;91.45;100375.80;1633045;87;20984;-68
2022/11/07 15:58:28;;;;;;;23.57;18.60;;;;;;;6.80;91.19;100381.58;1640238;87;26596;-73
2022/11/07 16:00:55;;;;;;;28.15;20.20;;;;;;;6.82;90.93;100384.33;1638741;87;21544;-74
2022/11/07 16:03:24;;;;;;;25.60;17.73;;;;;;;6.80;90.92;100381.58;1629473;87;21666;-75
2022/11/07 16:05:53;;;;;;;26.30;18.65;;;;;;;6.78;90.83;100388.45;1616085;87;21174;-71
2022/11/07 16:08:22;;;;;;;22.85;19.02;;;;;;;6.74;90.96;100383.22;1636331;85;20956;-68
2022/11/07 16:10:55;;;;;;;31.00;19.55;;;;;;;6.69;91.05;100379.02;1623474;87;21564;-67
2022/11/07 16:13:22;;;;;;;27.00;18.82;;;;;;;6.71;91.24;100381.48;1639651;87;20953;-66
2022/11/07 16:15:52;;;;;;;22.45;17.57;;;;;;;6.72;91.25;100381.77;1617624;87;21117;-73
2022/11/07 16:18:21;;;;;;;23.42;16.90;;;;;;;6.74;91.28;100383.22;1628094;87;22343;-68
2022/11/07 16:20:50;;;;;;;26.15;17.27;;;;;;;6.76;91.37;100387.03;1642135;87;21680;-68
2022/11/07 16:23:17;;;;;;;26.57;18.35;;;;;;;6.75;91.35;100383.53;1641203;87;21068;-72
2022/11/07 16:25:47;;;;;;;23.67;18.17;;;;;;;6.77;91.38;100379.30;1616774;87;20983;-69
2022/11/07 16:28:31;;;;;;;24.32;18.27;;;;;;;6.75;91.38;100378.19;1617719;87;21071;-73
2022/11/07 16:30:59;;;;;;;26.95;19.85;;;;;;;6.75;91.52;100380.86;1637659;87;21157;-71
2022/11/07 16:33:26;;;;;;;24.40;19.30;;;;;;;6.79;91.57;100382.59;1632890;87;21133;-69
2022/11/07 16:35:55;;;;;;;29.18;18.82;;;;;;;6.82;91.55;100379.50;1641003;87;21547;-69
2022/11/07 16:38:23;;;;;;;27.40;20.17;;;;;;;6.83;91.47;100383.31;1620978;87;20968;-67
2022/11/07 16:40:50;;;;;;;30.17;21.15;;;;;;;6.82;91.43;100381.66;1643348;87;21521;-74
2022/11/07 16:43:16;;;;;;;26.80;18.27;;;;;;;6.81;91.51;100377.34;1642780;87;21290;-85
2022/11/07 16:45:52;;;;;;;27.20;21.93;;;;;;;6.82;91.62;100380.83;1640614;86;21327;-81
2022/11/07 16:48:25;;;;;;;29.72;20.55;;;;;;;6.81;91.63;100379.22;1642825;87;21105;-77
2022/11/07 16:50:53;;;;;;;28.45;19.95;;;;;;;6.77;91.74;100380.13;1641876;87;20960;-67
2022/11/07 16:53:22;;;;;;;25.88;20.15;;;;;;;6.74;91.89;100383.22;1641879;87;21049;-71
2022/11/07 16:55:51;;;;;;;35.88;21.87;;;;;;;6.71;92.12;100373.47;1641473;87;21157;-74
2022/11/07 16:58:28;;;;;;;28.12;22.50;;;;;;;6.67;92.49;100377.05;1642435;87;21085;-74
2022/11/07 17:00:57;;;;;;;29.18;19.65;;;;;;;6.69;92.62;100374.18;1642304;87;21075;-75
2022/11/07 17:03:25;;;;;;;30.02;23.22;;;;;;;6.70;92.73;100371.31;1617586;87;21079;-82
2022/11/07 17:05:55;;;;;;;29.57;22.30;;;;;;;6.71;92.83;100369.46;1642392;87;21048;-80
2022/11/07 17:08:39;;;;;;;27.10;22.20;;;;;;;6.74;92.77;100371.70;1643031;87;21152;-81
2022/11/07 17:11:11;;;;;;;29.82;20.17;;;;;;;6.77;92.84;100372.62;1618621;87;22063;-76
2022/11/07 17:13:39;;;;;;;29.40;19.15;;;;;;;6.81;92.83;100376.00;1637422;87;21204;-79
2022/11/07 17:16:23;;;;;;;27.67;21.17;;;;;;;6.84;92.80;100361.41;1629381;87;21004;-75
2022/11/07 17:18:51;;;;;;;31.35;22.80;;;;;;;6.84;92.64;100353.39;1641767;86;21048;-74
2022/11/07 17:21:32;;;;;;;29.37;22.15;;;;;;;6.84;92.63;100354.21;1642059;86;21127;-71
2022/11/07 17:24:00;;;;;;;25.35;20.37;;;;;;;6.83;92.60;100355.23;1641886;87;21134;-69
2022/11/07 17:26:29;;;;;;;31.90;22.15;;;;;;;6.82;92.63;100346.08;1641045;87;21048;-71
2022/11/07 17:28:57;;;;;;;31.85;23.85;;;;;;;6.80;92.66;100354.84;1642230;87;20988;-70
2022/11/07 17:31:24;;;;;;;27.37;19.30;;;;;;;6.76;92.80;100353.62;1642412;87;21124;-72
2022/11/07 17:33:51;;;;;;;29.77;21.85;;;;;;;6.74;92.93;100347.14;1642333;87;21069;-75
2022/11/07 17:36:32;;;;;;;29.27;21.17;;;;;;;6.73;92.98;100350.83;1633421;86;21054;-72